createdAt,value
2019-02-28T00:00:37.169Z,0.4
2019-02-28T00:01:25.344Z,0.4
2019-02-28T00:02:11.282Z,0.4
2019-02-28T00:02:57.213Z,0.4
2019-02-28T00:03:43.136Z,0.4
2019-02-28T00:04:31.733Z,0.4
2019-02-28T00:05:18.118Z,0.5
2019-02-28T00:06:04.036Z,0.6
2019-02-28T00:06:49.985Z,0.6
2019-02-28T00:07:35.920Z,0.8
2019-02-28T00:08:21.851Z,0.8
2019-02-28T00:09:07.770Z,0.7
2019-02-28T00:09:53.700Z,0.6
2019-02-28T00:10:39.617Z,0.5
2019-02-28T00:11:25.533Z,0.4
2019-02-28T00:12:13.503Z,0.6
2019-02-28T00:13:00.196Z,0.5
2019-02-28T00:13:46.120Z,0.4
2019-02-28T00:14:32.045Z,0.7
2019-02-28T00:15:17.984Z,0.8
2019-02-28T00:16:04.042Z,0.8
2019-02-28T00:16:50.019Z,0.8
2019-02-28T00:17:35.959Z,0.8
2019-02-28T00:18:21.886Z,0.6
2019-02-28T00:19:07.812Z,0.6
2019-02-28T00:19:55.268Z,0.6
2019-02-28T00:20:41.291Z,0.6
2019-02-28T00:21:27.213Z,0.6
2019-02-28T00:22:14.632Z,0.9
2019-02-28T00:23:01.282Z,1.2
2019-02-28T00:23:47.204Z,1.3
2019-02-28T00:24:33.131Z,1.3
2019-02-28T00:25:19.056Z,1.3
2019-02-28T00:26:04.974Z,1.4
2019-02-28T00:26:50.924Z,1.4
2019-02-28T00:27:36.850Z,1.5
2019-02-28T00:28:23.024Z,1.4
2019-02-28T00:29:11.435Z,1.3
2019-02-28T00:29:57.364Z,1.3
2019-02-28T00:30:43.280Z,1.2
2019-02-28T00:31:29.197Z,1.3
2019-02-28T00:32:15.143Z,1.3
2019-02-28T00:33:01.071Z,1.3
2019-02-28T00:33:47.013Z,1.2
2019-02-28T00:34:32.965Z,1.3
2019-02-28T00:35:18.932Z,1.2
2019-02-28T00:36:04.857Z,1.3
2019-02-28T00:36:53.331Z,1.3
2019-02-28T00:37:39.453Z,1.3
2019-02-28T00:38:29.167Z,1.3
2019-02-28T00:39:15.580Z,1.3
2019-02-28T00:40:01.516Z,1.2
2019-02-28T00:40:47.440Z,1.2
2019-02-28T00:41:33.362Z,1.1
2019-02-28T00:42:19.321Z,1
2019-02-28T00:43:05.257Z,0.9
2019-02-28T00:43:51.182Z,0.7
2019-02-28T00:44:37.102Z,0.6
2019-02-28T00:45:23.021Z,0.7
2019-02-28T00:46:09.982Z,0.7
2019-02-28T00:46:56.758Z,0.6
2019-02-28T00:47:42.679Z,0.6
2019-02-28T00:48:28.602Z,0.6
2019-02-28T00:49:14.520Z,0.6
2019-02-28T00:50:00.455Z,0.7
2019-02-28T00:50:46.379Z,0.8
2019-02-28T00:51:32.310Z,0.8
2019-02-28T00:52:18.267Z,0.7
2019-02-28T00:53:06.350Z,0.7
2019-02-28T00:53:53.164Z,0.8
2019-02-28T00:54:42.963Z,0.9
2019-02-28T00:55:29.204Z,0.8
2019-02-28T00:56:17.500Z,0.9
2019-02-28T00:57:03.569Z,0.8
2019-02-28T00:57:49.516Z,0.9
2019-02-28T00:58:35.443Z,0.9
2019-02-28T00:59:21.361Z,0.8
2019-02-28T01:00:07.288Z,0.8
2019-02-28T01:00:53.211Z,0.8
2019-02-28T01:01:39.144Z,0.7
2019-02-28T01:02:25.160Z,0.6
2019-02-28T01:03:11.106Z,0.5
2019-02-28T01:03:57.938Z,0.5
2019-02-28T01:04:44.021Z,0.5
2019-02-28T01:05:29.940Z,0.4
2019-02-28T01:06:15.860Z,0.4
2019-02-28T01:07:01.780Z,0.4
2019-02-28T01:07:48.923Z,0.4
2019-02-28T01:08:34.935Z,0.3
2019-02-28T01:09:20.898Z,0.1
2019-02-28T01:10:06.830Z,0
2019-02-28T01:10:52.750Z,-0.1
2019-02-28T01:11:38.670Z,0
2019-02-28T01:12:24.600Z,0.1
2019-02-28T01:13:10.557Z,0.1
2019-02-28T01:13:58.035Z,0
2019-02-28T01:14:47.178Z,-0.1
2019-02-28T01:15:33.104Z,-0.1
2019-02-28T01:16:19.289Z,-0.1
2019-02-28T01:17:05.961Z,0
2019-02-28T01:17:51.906Z,-0.1
2019-02-28T01:18:37.860Z,-0.1
2019-02-28T01:19:23.777Z,-0.3
2019-02-28T01:20:14.724Z,-0.4
2019-02-28T01:21:00.564Z,-0.4
2019-02-28T01:21:46.492Z,-0.4
2019-02-28T01:22:32.409Z,-0.5
2019-02-28T01:23:18.360Z,-0.4
2019-02-28T01:24:04.292Z,-0.3
2019-02-28T01:24:50.215Z,-0.2
2019-02-28T01:25:37.150Z,-0.3
2019-02-28T01:26:25.835Z,-0.3
2019-02-28T01:27:11.779Z,-0.5
2019-02-28T01:27:57.711Z,-0.8
2019-02-28T01:28:43.665Z,-0.8
2019-02-28T01:29:29.593Z,-0.8
2019-02-28T01:30:15.527Z,-0.8
2019-02-28T01:31:01.485Z,-0.9
2019-02-28T01:31:47.419Z,-0.8
2019-02-28T01:32:33.363Z,-0.8
2019-02-28T01:33:24.542Z,-0.8
2019-02-28T01:34:10.170Z,-0.8
2019-02-28T01:34:56.107Z,-0.7
2019-02-28T01:35:42.030Z,-0.7
2019-02-28T01:36:27.951Z,-0.6
2019-02-28T01:37:13.870Z,-0.6
2019-02-28T01:37:59.797Z,-0.5
2019-02-28T01:38:45.753Z,-0.6
2019-02-28T01:39:31.677Z,-0.4
2019-02-28T01:40:17.611Z,-0.3
2019-02-28T01:41:03.530Z,-0.4
2019-02-28T01:41:49.458Z,-0.3
2019-02-28T01:42:35.375Z,-0.3
2019-02-28T01:43:21.338Z,-0.5
2019-02-28T01:44:07.258Z,-0.5
2019-02-28T01:44:53.183Z,-0.3
2019-02-28T01:45:43.153Z,-0.3
2019-02-28T01:46:29.496Z,-0.3
2019-02-28T01:47:15.422Z,-0.4
2019-02-28T01:48:01.347Z,-0.4
2019-02-28T01:48:47.302Z,-0.5
2019-02-28T01:49:33.242Z,-0.6
2019-02-28T01:50:19.169Z,-0.6
2019-02-28T01:51:05.098Z,-0.6
2019-02-28T01:51:51.025Z,-0.6
2019-02-28T01:52:36.954Z,-0.6
2019-02-28T01:53:22.873Z,-0.6
2019-02-28T01:54:08.821Z,-0.8
2019-02-28T01:54:54.762Z,-0.9
2019-02-28T01:55:40.684Z,-0.9
2019-02-28T01:56:26.612Z,-0.8
2019-02-28T01:57:12.533Z,-0.8
2019-02-28T01:57:58.482Z,-0.8
2019-02-28T01:58:44.407Z,-0.8
2019-02-28T01:59:30.363Z,-0.8
2019-02-28T02:00:16.284Z,-0.8
2019-02-28T02:01:02.200Z,-0.8
2019-02-28T02:01:48.130Z,-0.9
2019-02-28T02:02:34.059Z,-0.9
2019-02-28T02:03:19.987Z,-0.9
2019-02-28T02:04:05.920Z,-0.9
2019-02-28T02:04:51.876Z,-0.9
2019-02-28T02:05:37.803Z,-0.8
2019-02-28T02:06:25.702Z,-0.8
2019-02-28T02:07:12.337Z,-0.7
2019-02-28T02:07:58.258Z,-0.6
2019-02-28T02:08:44.180Z,-0.6
2019-02-28T02:09:30.127Z,-0.6
2019-02-28T02:10:17.519Z,-0.6
2019-02-28T02:11:06.064Z,-0.6
2019-02-28T02:11:51.988Z,-0.6
2019-02-28T02:12:37.909Z,-0.7
2019-02-28T02:13:23.837Z,-0.8
2019-02-28T02:14:10.955Z,-0.9
2019-02-28T02:14:57.708Z,-0.9
2019-02-28T02:15:43.625Z,-0.9
2019-02-28T02:16:29.544Z,-0.9
2019-02-28T02:17:15.467Z,-0.9
2019-02-28T02:18:01.389Z,-0.8
2019-02-28T02:18:47.314Z,-0.8
2019-02-28T02:19:33.266Z,-0.8
2019-02-28T02:20:19.191Z,-0.8
2019-02-28T02:21:05.121Z,-0.8
2019-02-28T02:21:51.051Z,-0.8
2019-02-28T02:22:36.969Z,-0.7
2019-02-28T02:23:22.885Z,-0.8
2019-02-28T02:24:08.811Z,-0.8
2019-02-28T02:24:54.776Z,-0.8
2019-02-28T02:25:40.710Z,-0.9
2019-02-28T02:26:26.629Z,-0.9
2019-02-28T02:27:12.546Z,-0.9
2019-02-28T02:27:58.498Z,-0.9
2019-02-28T02:28:44.422Z,-0.9
2019-02-28T02:29:32.356Z,-0.9
2019-02-28T02:30:21.234Z,-0.9
2019-02-28T02:31:07.156Z,-0.9
2019-02-28T02:31:53.082Z,-0.9
2019-02-28T02:32:39.005Z,-1
2019-02-28T02:33:24.934Z,-1.1
2019-02-28T02:34:10.881Z,-1.1
2019-02-28T02:34:56.838Z,-1.1
2019-02-28T02:35:43.634Z,-1.1
2019-02-28T02:36:29.596Z,-1.1
2019-02-28T02:37:15.525Z,-1
2019-02-28T02:38:03.443Z,-0.9
2019-02-28T02:38:49.683Z,-0.9
2019-02-28T02:39:35.643Z,-0.9
2019-02-28T02:40:22.873Z,-0.8
2019-02-28T02:41:09.075Z,-0.8
2019-02-28T02:41:55.002Z,-0.8
2019-02-28T02:42:47.116Z,-0.8
2019-02-28T02:43:31.811Z,-0.7
2019-02-28T02:44:17.743Z,-0.6
2019-02-28T02:45:05.483Z,-0.6
2019-02-28T02:45:52.336Z,-0.4
2019-02-28T02:46:38.263Z,-0.3
2019-02-28T02:47:24.195Z,-0.3
2019-02-28T02:48:10.115Z,-0.2
2019-02-28T02:48:56.052Z,-0.1
2019-02-28T02:49:42.020Z,-0.1
2019-02-28T02:50:33.890Z,-0.1
2019-02-28T02:51:18.817Z,-0.2
2019-02-28T02:52:04.773Z,-0.2
2019-02-28T02:52:50.706Z,-0.2
2019-02-28T02:53:41.340Z,-0.3
2019-02-28T02:54:27.494Z,-0.3
2019-02-28T02:55:13.490Z,-0.3
2019-02-28T02:56:03.440Z,-0.3
2019-02-28T02:56:49.691Z,-0.3
2019-02-28T02:57:35.635Z,-0.4
2019-02-28T02:58:26.502Z,-0.4
2019-02-28T02:59:12.435Z,-0.4
2019-02-28T02:59:58.405Z,-0.4
2019-02-28T03:00:49.259Z,-0.2
2019-02-28T03:01:35.244Z,-0.2
2019-02-28T03:02:21.173Z,0
2019-02-28T03:03:07.789Z,0.1
2019-02-28T03:03:53.805Z,0.4
2019-02-28T03:04:39.731Z,0.5
2019-02-28T03:05:25.681Z,0.6
2019-02-28T03:06:13.490Z,0.8
2019-02-28T03:07:00.051Z,0.9
2019-02-28T03:07:45.968Z,1.1
2019-02-28T03:08:35.606Z,1.4
2019-02-28T03:09:22.166Z,1.6
2019-02-28T03:10:08.097Z,1.7
2019-02-28T03:10:54.055Z,1.8
2019-02-28T03:11:39.977Z,1.8
2019-02-28T03:12:25.896Z,1.9
2019-02-28T03:13:11.825Z,1.9
2019-02-28T03:13:57.751Z,2
2019-02-28T03:14:43.709Z,2.1
2019-02-28T03:15:29.659Z,2.1
2019-02-28T03:16:15.583Z,2.1
2019-02-28T03:17:01.529Z,2.1
2019-02-28T03:17:48.728Z,2.2
2019-02-28T03:18:35.026Z,2.2
2019-02-28T03:19:20.956Z,2.3
2019-02-28T03:20:07.659Z,2.3
2019-02-28T03:20:54.600Z,2.4
2019-02-28T03:21:40.533Z,2.4
2019-02-28T03:22:29.731Z,2.5
2019-02-28T03:23:16.137Z,2.5
2019-02-28T03:24:02.056Z,2.6
2019-02-28T03:24:50.975Z,2.6
2019-02-28T03:25:37.970Z,2.6
2019-02-28T03:26:23.919Z,2.7
2019-02-28T03:27:09.852Z,2.7
2019-02-28T03:27:56.783Z,2.7
2019-02-28T03:28:42.817Z,2.8
2019-02-28T03:29:28.744Z,2.9
2019-02-28T03:30:25.690Z,2.9
2019-02-28T03:31:12.483Z,2.9
2019-02-28T03:31:59.260Z,3
2019-02-28T03:32:45.418Z,3.1
2019-02-28T03:33:31.367Z,3.1
2019-02-28T03:34:17.291Z,3.1
2019-02-28T03:35:03.218Z,3.1
2019-02-28T03:35:49.165Z,3.2
2019-02-28T03:36:35.134Z,3.2
2019-02-28T03:37:21.068Z,3.3
2019-02-28T03:38:11.210Z,3.4
2019-02-28T03:38:57.858Z,3.4
2019-02-28T03:39:43.782Z,3.4
2019-02-28T03:40:29.746Z,3.4
2019-02-28T03:41:17.607Z,3.4
2019-02-28T03:42:03.878Z,3.4
2019-02-28T03:42:49.818Z,3.5
2019-02-28T03:43:42.417Z,3.5
2019-02-28T03:44:26.593Z,3.5
2019-02-28T03:45:12.543Z,3.6
2019-02-28T03:45:58.464Z,3.6
2019-02-28T03:46:46.678Z,3.6
2019-02-28T03:47:33.697Z,3.6
2019-02-28T03:48:19.621Z,3.6
2019-02-28T03:49:10.839Z,3.6
2019-02-28T03:49:56.430Z,3.6
2019-02-28T03:50:42.359Z,3.6
2019-02-28T03:51:29.526Z,3.6
2019-02-28T03:52:15.590Z,3.6
2019-02-28T03:53:01.516Z,3.6
2019-02-28T03:53:47.445Z,3.7
2019-02-28T03:54:33.371Z,3.7
2019-02-28T03:55:19.297Z,3.7
2019-02-28T03:56:05.236Z,3.7
2019-02-28T03:56:52.970Z,3.7
2019-02-28T03:57:39.207Z,3.7
2019-02-28T03:58:25.139Z,3.7
2019-02-28T03:59:18.063Z,3.7
2019-02-28T04:00:01.924Z,3.7
2019-02-28T04:00:47.882Z,3.7
2019-02-28T04:01:33.801Z,3.7
2019-02-28T04:02:22.103Z,3.7
2019-02-28T04:03:08.267Z,3.7
2019-02-28T04:03:54.213Z,3.7
2019-02-28T04:04:40.135Z,3.7
2019-02-28T04:05:27.910Z,3.7
2019-02-28T04:06:14.166Z,3.7
2019-02-28T04:07:00.132Z,3.7
2019-02-28T04:07:52.173Z,3.7
2019-02-28T04:08:36.923Z,3.7
2019-02-28T04:09:22.862Z,3.7
2019-02-28T04:10:08.796Z,3.7
2019-02-28T04:10:55.742Z,3.7
2019-02-28T04:11:41.792Z,3.7
2019-02-28T04:12:27.747Z,3.7
2019-02-28T04:13:13.671Z,3.7
2019-02-28T04:13:59.598Z,3.7
2019-02-28T04:14:45.514Z,3.7
2019-02-28T04:15:31.441Z,3.7
2019-02-28T04:16:17.382Z,3.8
2019-02-28T04:17:03.307Z,3.8
2019-02-28T04:17:49.280Z,3.8
2019-02-28T04:18:35.235Z,3.8
2019-02-28T04:19:22.760Z,3.8
2019-02-28T04:20:08.896Z,3.8
2019-02-28T04:20:54.820Z,3.8
2019-02-28T04:21:46.003Z,3.8
2019-02-28T04:22:31.639Z,3.8
2019-02-28T04:23:17.561Z,3.8
2019-02-28T04:24:03.489Z,3.8
2019-02-28T04:24:49.422Z,3.8
2019-02-28T04:25:35.350Z,3.8
2019-02-28T04:26:21.278Z,3.8
2019-02-28T04:27:07.898Z,3.8
2019-02-28T04:27:53.932Z,3.8
2019-02-28T04:28:39.873Z,3.8
2019-02-28T04:29:29.807Z,3.8
2019-02-28T04:30:16.105Z,3.8
2019-02-28T04:31:02.105Z,3.8
2019-02-28T04:31:51.276Z,3.8
2019-02-28T04:32:37.417Z,3.8
2019-02-28T04:33:23.371Z,3.9
2019-02-28T04:34:12.871Z,3.9
2019-02-28T04:34:59.236Z,3.9
2019-02-28T04:35:45.156Z,3.9
2019-02-28T04:36:35.389Z,3.9
2019-02-28T04:37:21.542Z,3.9
2019-02-28T04:38:07.499Z,3.9
2019-02-28T04:38:53.424Z,3.9
2019-02-28T04:39:39.343Z,3.9
2019-02-28T04:40:26.884Z,3.9
2019-02-28T04:41:12.997Z,3.9
2019-02-28T04:41:58.923Z,3.9
2019-02-28T04:42:44.847Z,3.9
2019-02-28T04:43:30.795Z,3.9
2019-02-28T04:44:18.202Z,3.9
2019-02-28T04:45:04.358Z,3.9
2019-02-28T04:45:50.284Z,3.9
2019-02-28T04:46:36.219Z,3.9
2019-02-28T04:47:22.198Z,3.9
2019-02-28T04:48:08.158Z,3.9
2019-02-28T04:48:54.081Z,3.9
2019-02-28T04:49:39.999Z,3.9
2019-02-28T04:50:30.928Z,3.9
2019-02-28T04:51:16.799Z,3.9
2019-02-28T04:52:02.726Z,3.9
2019-02-28T04:52:48.647Z,3.9
2019-02-28T04:53:34.595Z,3.9
2019-02-28T04:54:20.526Z,3.8
2019-02-28T04:55:06.444Z,3.8
2019-02-28T04:55:52.368Z,3.8
2019-02-28T04:56:38.291Z,3.8
2019-02-28T04:57:24.221Z,3.8
2019-02-28T04:58:10.151Z,3.8
2019-02-28T04:58:56.407Z,3.7
2019-02-28T04:59:45.289Z,3.7
2019-02-28T05:00:31.322Z,3.7
2019-02-28T05:01:17.250Z,3.7
2019-02-28T05:02:03.173Z,3.7
2019-02-28T05:02:53.689Z,3.7
2019-02-28T05:03:39.990Z,3.7
2019-02-28T05:04:25.922Z,3.7
2019-02-28T05:05:13.301Z,3.7
2019-02-28T05:05:59.538Z,3.7
2019-02-28T05:06:45.470Z,3.7
2019-02-28T05:07:31.412Z,3.7
2019-02-28T05:08:17.337Z,3.7
2019-02-28T05:09:03.287Z,3.7
2019-02-28T05:09:49.216Z,3.7
2019-02-28T05:10:35.136Z,3.7
2019-02-28T05:11:21.064Z,3.7
2019-02-28T05:12:07.001Z,3.7
2019-02-28T05:12:52.927Z,3.7
2019-02-28T05:13:40.962Z,3.7
2019-02-28T05:14:27.133Z,3.7
2019-02-28T05:15:13.074Z,3.7
2019-02-28T05:15:59.008Z,3.7
2019-02-28T05:16:47.432Z,3.7
2019-02-28T05:17:33.571Z,3.7
2019-02-28T05:18:19.489Z,3.7
2019-02-28T05:19:05.457Z,3.7
2019-02-28T05:19:51.388Z,3.7
2019-02-28T05:20:37.383Z,3.7
2019-02-28T05:21:23.309Z,3.7
2019-02-28T05:22:09.238Z,3.7
2019-02-28T05:22:55.165Z,3.7
2019-02-28T05:23:41.103Z,3.7
2019-02-28T05:24:27.051Z,3.7
2019-02-28T05:25:17.279Z,3.7
2019-02-28T05:26:03.779Z,3.7
2019-02-28T05:26:49.703Z,3.7
2019-02-28T05:27:36.405Z,3.7
2019-02-28T05:28:22.407Z,3.7
2019-02-28T05:29:11.826Z,3.7
2019-02-28T05:29:57.924Z,3.7
2019-02-28T05:30:43.851Z,3.7
2019-02-28T05:31:29.781Z,3.7
2019-02-28T05:32:15.704Z,3.7
2019-02-28T05:33:01.630Z,3.7
2019-02-28T05:33:47.558Z,3.7
2019-02-28T05:34:33.568Z,3.7
2019-02-28T05:35:25.094Z,3.7
2019-02-28T05:36:10.353Z,3.7
2019-02-28T05:36:56.271Z,3.7
2019-02-28T05:37:46.435Z,3.7
2019-02-28T05:38:32.971Z,3.7
2019-02-28T05:39:18.895Z,3.7
2019-02-28T05:40:06.004Z,3.7
2019-02-28T05:40:52.685Z,3.7
2019-02-28T05:41:38.612Z,3.7
2019-02-28T05:42:24.541Z,3.7
2019-02-28T05:43:10.468Z,3.7
2019-02-28T05:43:56.398Z,3.7
2019-02-28T05:44:42.353Z,3.7
2019-02-28T05:45:28.308Z,3.7
2019-02-28T05:46:14.229Z,3.7
2019-02-28T05:47:00.147Z,3.7
2019-02-28T05:47:47.287Z,3.7
2019-02-28T05:48:35.198Z,3.7
2019-02-28T05:49:24.203Z,3.7
2019-02-28T05:50:15.072Z,3.7
2019-02-28T05:51:01.019Z,3.7
2019-02-28T05:51:46.957Z,3.7
2019-02-28T05:52:33.677Z,3.7
2019-02-28T05:53:20.325Z,3.7
2019-02-28T05:54:06.255Z,3.7
2019-02-28T05:54:52.204Z,3.7
2019-02-28T05:55:38.135Z,3.7
2019-02-28T05:56:24.060Z,3.7
2019-02-28T05:57:09.987Z,3.7
2019-02-28T05:57:55.909Z,3.7
2019-02-28T05:58:41.825Z,3.7
2019-02-28T05:59:27.750Z,3.7
2019-02-28T06:00:13.708Z,3.7
2019-02-28T06:00:59.642Z,3.7
2019-02-28T06:01:46.889Z,3.7
2019-02-28T06:02:33.575Z,3.7
2019-02-28T06:03:19.502Z,3.7
2019-02-28T06:04:05.421Z,3.7
2019-02-28T06:04:51.375Z,3.7
2019-02-28T06:05:38.883Z,3.7
2019-02-28T06:06:24.970Z,3.7
2019-02-28T06:07:10.898Z,3.7
2019-02-28T06:07:56.818Z,3.7
2019-02-28T06:08:42.744Z,3.7
2019-02-28T06:09:28.698Z,3.7
2019-02-28T06:10:14.655Z,3.7
2019-02-28T06:11:01.403Z,3.7
2019-02-28T06:11:47.405Z,3.7
2019-02-28T06:12:33.333Z,3.7
2019-02-28T06:13:19.256Z,3.6
2019-02-28T06:14:05.197Z,3.6
2019-02-28T06:14:51.127Z,3.6
2019-02-28T06:15:37.273Z,3.7
2019-02-28T06:16:23.799Z,3.7
2019-02-28T06:17:09.738Z,3.7
2019-02-28T06:17:55.738Z,3.7
2019-02-28T06:18:41.710Z,3.7
2019-02-28T06:19:27.690Z,3.7
2019-02-28T06:20:16.168Z,3.7
2019-02-28T06:21:02.396Z,3.7
2019-02-28T06:21:48.340Z,3.7
2019-02-28T06:22:36.175Z,3.6
2019-02-28T06:23:22.249Z,3.6
2019-02-28T06:24:08.177Z,3.6
2019-02-28T06:24:54.095Z,3.7
2019-02-28T06:25:40.053Z,3.7
2019-02-28T06:26:25.975Z,3.6
2019-02-28T06:27:11.904Z,3.6
2019-02-28T06:27:57.827Z,3.6
2019-02-28T06:28:43.769Z,3.6
2019-02-28T06:29:29.698Z,3.7
2019-02-28T06:30:15.759Z,3.7
2019-02-28T06:31:01.789Z,3.7
2019-02-28T06:31:48.576Z,3.7
2019-02-28T06:32:35.273Z,3.7
2019-02-28T06:33:21.419Z,3.7
2019-02-28T06:34:08.522Z,3.8
2019-02-28T06:34:55.164Z,3.7
2019-02-28T06:35:41.149Z,3.8
2019-02-28T06:36:29.130Z,3.8
2019-02-28T06:37:15.816Z,3.8
2019-02-28T06:38:01.741Z,3.8
2019-02-28T06:38:47.671Z,3.8
2019-02-28T06:39:33.595Z,3.9
2019-02-28T06:40:19.551Z,3.9
2019-02-28T06:41:07.514Z,3.9
2019-02-28T06:41:53.656Z,3.9
2019-02-28T06:42:39.586Z,3.9
2019-02-28T06:43:25.508Z,3.9
2019-02-28T06:44:11.443Z,3.9
2019-02-28T06:44:58.649Z,3.9
2019-02-28T06:45:48.174Z,4
2019-02-28T06:46:34.119Z,4
2019-02-28T06:47:20.042Z,4
2019-02-28T06:48:05.966Z,4
2019-02-28T06:48:51.895Z,4
2019-02-28T06:49:41.780Z,4
2019-02-28T06:50:27.920Z,4
2019-02-28T06:51:16.718Z,4
2019-02-28T06:52:03.434Z,4
2019-02-28T06:52:49.359Z,4.1
2019-02-28T06:53:36.270Z,4
2019-02-28T06:54:22.291Z,4.1
2019-02-28T06:55:08.218Z,4.1
2019-02-28T06:55:54.165Z,4.1
2019-02-28T06:56:40.087Z,4.1
2019-02-28T06:57:26.733Z,4.1
2019-02-28T06:58:13.301Z,4.2
2019-02-28T06:58:59.221Z,4.2
2019-02-28T06:59:45.154Z,4.2
2019-02-28T07:00:31.208Z,4.2
2019-02-28T07:01:19.187Z,4.2
2019-02-28T07:02:08.894Z,4.2
2019-02-28T07:02:54.921Z,4.2
2019-02-28T07:03:42.473Z,4.2
2019-02-28T07:04:28.518Z,4.2
2019-02-28T07:05:14.435Z,4.2
2019-02-28T07:06:01.017Z,4.2
2019-02-28T07:06:47.858Z,4.2
2019-02-28T07:07:33.782Z,4.2
2019-02-28T07:08:20.610Z,4.2
2019-02-28T07:09:10.224Z,4.3
2019-02-28T07:09:56.150Z,4.3
2019-02-28T07:10:44.883Z,4.4
2019-02-28T07:11:32.970Z,4.4
2019-02-28T07:12:18.902Z,4.5
2019-02-28T07:13:05.594Z,4.5
2019-02-28T07:13:51.608Z,4.5
2019-02-28T07:14:37.532Z,4.5
2019-02-28T07:15:24.865Z,4.5
2019-02-28T07:16:10.890Z,4.6
2019-02-28T07:16:56.863Z,4.6
2019-02-28T07:17:46.257Z,4.6
2019-02-28T07:18:33.306Z,4.5
2019-02-28T07:19:19.244Z,4.4
2019-02-28T07:20:05.191Z,4.5
2019-02-28T07:20:51.111Z,4.6
2019-02-28T07:21:42.651Z,4.6
2019-02-28T07:22:27.938Z,4.6
2019-02-28T07:23:13.875Z,4.6
2019-02-28T07:24:02.351Z,4.6
2019-02-28T07:24:48.595Z,4.6
2019-02-28T07:25:34.512Z,4.6
2019-02-28T07:26:20.440Z,4.6
2019-02-28T07:27:06.390Z,4.6
2019-02-28T07:27:52.322Z,4.6
2019-02-28T07:28:38.299Z,4.6
2019-02-28T07:29:24.248Z,4.6
2019-02-28T07:30:10.193Z,4.6
2019-02-28T07:30:56.124Z,4.6
2019-02-28T07:31:42.040Z,4.6
2019-02-28T07:32:28.003Z,4.6
2019-02-28T07:33:13.928Z,4.6
2019-02-28T07:33:59.849Z,4.6
2019-02-28T07:34:45.776Z,4.6
2019-02-28T07:35:33.750Z,4.6
2019-02-28T07:36:20.967Z,4.6
2019-02-28T07:37:06.920Z,4.6
2019-02-28T07:37:54.289Z,4.6
2019-02-28T07:38:40.417Z,4.6
2019-02-28T07:39:26.334Z,4.6
2019-02-28T07:40:15.349Z,4.6
2019-02-28T07:41:01.723Z,4.6
2019-02-28T07:41:47.641Z,4.6
2019-02-28T07:42:37.236Z,4.6
2019-02-28T07:43:23.490Z,4.6
2019-02-28T07:44:09.425Z,4.6
2019-02-28T07:44:57.858Z,4.6
2019-02-28T07:45:44.825Z,4.6
2019-02-28T07:46:30.746Z,4.6
2019-02-28T07:47:17.332Z,4.6
2019-02-28T07:48:04.251Z,4.6
2019-02-28T07:48:50.178Z,4.6
2019-02-28T07:49:36.987Z,4.6
2019-02-28T07:50:22.987Z,4.6
2019-02-28T07:51:08.905Z,4.6
2019-02-28T07:51:56.850Z,4.6
2019-02-28T07:52:43.161Z,4.6
2019-02-28T07:53:29.088Z,4.6
2019-02-28T07:54:15.795Z,4.6
2019-02-28T07:55:02.463Z,4.6
2019-02-28T07:55:48.403Z,4.6
2019-02-28T07:56:34.328Z,4.6
2019-02-28T07:57:22.398Z,4.7
2019-02-28T07:58:08.369Z,4.6
2019-02-28T07:58:54.287Z,4.6
2019-02-28T07:59:42.210Z,4.7
2019-02-28T08:00:28.550Z,4.7
2019-02-28T08:01:14.485Z,4.7
2019-02-28T08:02:03.122Z,4.7
2019-02-28T08:02:49.128Z,4.7
2019-02-28T08:03:35.053Z,4.7
2019-02-28T08:04:20.984Z,4.7
2019-02-28T08:05:06.909Z,4.7
2019-02-28T08:05:52.830Z,4.7
2019-02-28T08:06:39.185Z,4.7
2019-02-28T08:07:26.284Z,4.7
2019-02-28T08:08:12.218Z,4.7
2019-02-28T08:08:58.138Z,4.7
2019-02-28T08:09:44.062Z,4.7
2019-02-28T08:10:29.981Z,4.7
2019-02-28T08:11:15.906Z,4.7
2019-02-28T08:12:01.843Z,4.7
2019-02-28T08:12:47.806Z,4.7
2019-02-28T08:13:34.531Z,4.7
2019-02-28T08:14:23.404Z,4.7
2019-02-28T08:15:09.342Z,4.7
2019-02-28T08:15:56.382Z,4.7
2019-02-28T08:16:43.319Z,4.7
2019-02-28T08:17:29.259Z,4.7
2019-02-28T08:18:15.746Z,4.7
2019-02-28T08:19:01.830Z,4.7
2019-02-28T08:19:47.755Z,4.7
2019-02-28T08:20:34.755Z,4.7
2019-02-28T08:21:20.799Z,4.7
2019-02-28T08:22:06.724Z,4.7
2019-02-28T08:22:56.412Z,4.7
2019-02-28T08:23:42.567Z,4.7
2019-02-28T08:24:28.489Z,4.7
2019-02-28T08:25:14.408Z,4.7
2019-02-28T08:26:00.361Z,4.7
2019-02-28T08:26:46.309Z,4.7
2019-02-28T08:27:32.234Z,4.7
2019-02-28T08:28:18.186Z,4.7
2019-02-28T08:29:04.112Z,4.7
2019-02-28T08:29:50.038Z,4.7
2019-02-28T08:30:35.984Z,4.7
2019-02-28T08:31:21.931Z,4.7
2019-02-28T08:32:08.175Z,4.7
2019-02-28T08:32:54.261Z,4.7
2019-02-28T08:33:40.185Z,4.7
2019-02-28T08:34:26.129Z,4.7
2019-02-28T08:35:12.090Z,4.7
2019-02-28T08:35:58.020Z,4.7
2019-02-28T08:36:46.874Z,4.7
2019-02-28T08:37:33.429Z,4.7
2019-02-28T08:38:19.385Z,4.7
2019-02-28T08:39:06.026Z,4.7
2019-02-28T08:39:54.518Z,4.7
2019-02-28T08:40:40.460Z,4.7
2019-02-28T08:41:26.424Z,4.7
2019-02-28T08:42:12.350Z,4.7
2019-02-28T08:42:58.296Z,4.7
2019-02-28T08:43:44.532Z,4.7
2019-02-28T08:44:30.659Z,4.7
2019-02-28T08:45:16.590Z,4.7
2019-02-28T08:46:02.857Z,4.7
2019-02-28T08:46:48.867Z,4.7
2019-02-28T08:47:34.793Z,4.7
2019-02-28T08:48:20.744Z,4.7
2019-02-28T08:49:07.347Z,4.7
2019-02-28T08:49:53.336Z,4.7
2019-02-28T08:50:39.257Z,4.7
2019-02-28T08:51:27.731Z,4.7
2019-02-28T08:52:13.763Z,4.7
2019-02-28T08:52:59.711Z,4.7
2019-02-28T08:53:50.679Z,4.7
2019-02-28T08:54:36.525Z,4.7
2019-02-28T08:55:28.511Z,4.8
2019-02-28T08:56:14.032Z,4.8
2019-02-28T08:57:00.789Z,4.7
2019-02-28T08:57:54.339Z,4.8
2019-02-28T08:58:38.485Z,4.8
2019-02-28T08:59:24.461Z,4.8
2019-02-28T09:00:10.384Z,4.8
2019-02-28T09:00:56.307Z,4.8
2019-02-28T09:01:44.047Z,4.8
2019-02-28T09:02:30.408Z,4.8
2019-02-28T09:03:16.410Z,4.8
2019-02-28T09:04:04.952Z,4.8
2019-02-28T09:04:51.671Z,4.8
2019-02-28T09:05:37.600Z,4.8
2019-02-28T09:06:23.532Z,4.8
2019-02-28T09:07:09.460Z,4.8
2019-02-28T09:07:55.388Z,4.8
2019-02-28T09:08:41.347Z,4.8
2019-02-28T09:09:27.279Z,4.8
2019-02-28T09:10:13.201Z,4.9
2019-02-28T09:10:59.139Z,4.9
2019-02-28T09:11:45.071Z,4.9
2019-02-28T09:12:33.192Z,4.9
2019-02-28T09:13:20.037Z,4.9
2019-02-28T09:14:05.977Z,4.9
2019-02-28T09:14:55.163Z,4.9
2019-02-28T09:15:41.239Z,4.9
2019-02-28T09:16:27.162Z,4.9
2019-02-28T09:17:15.477Z,4.9
2019-02-28T09:18:03.939Z,4.9
2019-02-28T09:18:49.896Z,4.9
2019-02-28T09:19:36.715Z,4.9
2019-02-28T09:20:22.840Z,4.9
2019-02-28T09:21:08.769Z,4.9
2019-02-28T09:21:54.717Z,4.9
2019-02-28T09:22:40.637Z,4.9
2019-02-28T09:23:26.562Z,4.9
2019-02-28T09:24:13.611Z,4.9
2019-02-28T09:24:59.581Z,4.9
2019-02-28T09:25:45.498Z,4.9
2019-02-28T09:26:31.938Z,4.9
2019-02-28T09:27:17.918Z,4.9
2019-02-28T09:28:03.847Z,4.9
2019-02-28T09:28:49.796Z,4.9
2019-02-28T09:29:35.727Z,4.9
2019-02-28T09:30:21.655Z,4.9
2019-02-28T09:31:07.570Z,4.9
2019-02-28T09:31:53.491Z,4.9
2019-02-28T09:32:39.414Z,4.9
2019-02-28T09:33:25.334Z,4.9
2019-02-28T09:34:11.281Z,4.9
2019-02-28T09:34:57.203Z,4.9
2019-02-28T09:35:46.214Z,4.9
2019-02-28T09:36:32.380Z,5
2019-02-28T09:37:18.305Z,5
2019-02-28T09:38:07.309Z,5
2019-02-28T09:38:57.124Z,5
2019-02-28T09:39:43.444Z,5
2019-02-28T09:40:30.473Z,5
2019-02-28T09:41:16.484Z,5
2019-02-28T09:42:02.411Z,5
2019-02-28T09:42:51.029Z,5
2019-02-28T09:43:37.810Z,5
2019-02-28T09:44:23.762Z,5
2019-02-28T09:45:09.685Z,5
2019-02-28T09:45:55.616Z,5
2019-02-28T09:46:41.541Z,5
2019-02-28T09:47:27.547Z,5
2019-02-28T09:48:13.486Z,5.1
2019-02-28T09:48:59.995Z,5.1
2019-02-28T09:49:47.146Z,5.1
2019-02-28T09:50:33.854Z,5.1
2019-02-28T09:51:19.774Z,5.1
2019-02-28T09:52:06.277Z,5.1
2019-02-28T09:52:53.148Z,5.1
2019-02-28T09:53:39.077Z,5.1
2019-02-28T09:54:25.480Z,5.1
2019-02-28T09:55:11.482Z,5.1
2019-02-28T09:55:57.428Z,5.1
2019-02-28T09:56:44.490Z,5.1
2019-02-28T09:57:31.193Z,5.1
2019-02-28T09:58:17.124Z,5.1
2019-02-28T09:59:03.867Z,5.1
2019-02-28T09:59:49.861Z,5.1
2019-02-28T10:00:35.783Z,5.1
2019-02-28T10:01:24.392Z,5.1
2019-02-28T10:02:10.465Z,5.1
2019-02-28T10:02:56.441Z,5.1
2019-02-28T10:03:42.380Z,5.1
2019-02-28T10:04:30.459Z,5.2
2019-02-28T10:05:17.103Z,5.2
2019-02-28T10:06:03.029Z,5.2
2019-02-28T10:06:51.521Z,5.2
2019-02-28T10:07:38.131Z,5.2
2019-02-28T10:08:24.062Z,5.2
2019-02-28T10:09:09.994Z,5.2
2019-02-28T10:09:55.945Z,5.2
2019-02-28T10:10:41.871Z,5.2
2019-02-28T10:11:31.133Z,5.2
2019-02-28T10:12:17.525Z,5.2
2019-02-28T10:13:03.453Z,5.2
2019-02-28T10:13:52.735Z,5.2
2019-02-28T10:14:39.115Z,5.2
2019-02-28T10:15:25.045Z,5.2
2019-02-28T10:16:13.530Z,5.2
2019-02-28T10:16:59.653Z,5.2
2019-02-28T10:17:45.578Z,5.2
2019-02-28T10:18:31.516Z,5.2
2019-02-28T10:19:17.452Z,5.2
2019-02-28T10:20:03.423Z,5.2
2019-02-28T10:20:49.351Z,5.2
2019-02-28T10:21:36.192Z,5.2
2019-02-28T10:22:23.479Z,5.2
2019-02-28T10:23:09.400Z,5.2
2019-02-28T10:23:56.837Z,5.2
2019-02-28T10:24:43.701Z,5.2
2019-02-28T10:25:29.654Z,5.2
2019-02-28T10:26:17.196Z,5.2
2019-02-28T10:27:03.544Z,5.2
2019-02-28T10:27:49.569Z,5.2
2019-02-28T10:28:35.514Z,5.2
2019-02-28T10:29:21.465Z,5.2
2019-02-28T10:30:07.429Z,5.2
2019-02-28T10:30:53.351Z,5.2
2019-02-28T10:31:39.270Z,5.3
2019-02-28T10:32:25.194Z,5.3
2019-02-28T10:33:11.126Z,5.3
2019-02-28T10:33:57.052Z,5.3
2019-02-28T10:34:42.975Z,5.3
2019-02-28T10:35:28.921Z,5.3
2019-02-28T10:36:14.834Z,5.3
2019-02-28T10:37:00.754Z,5.3
2019-02-28T10:37:46.675Z,5.3
2019-02-28T10:38:32.899Z,5.3